Time;durP1;ratioP1;P1;durP2;ratioP2;P2;SDS_P1;SDS_P2;PMS_P1;PMS_P2;Temp;Humidity;BMP_temperature;BMP_pressure;BME280_temperature;BME280_humidity;BME280_pressure;Samples;Min_cycle;Max_cycle;Signal;HPM_P1;HPM_P2
2022/12/06 00:01:22;;;;;;;4.63;3.40;;;18.30;66.20;;;;;;5020453;28;20763;-67
2022/12/06 00:03:53;;;;;;;4.43;3.10;;;18.30;66.20;;;;;;5017212;28;20467;-68
2022/12/06 00:06:24;;;;;;;3.37;3.07;;;18.30;66.20;;;;;;5013568;28;20571;-67
2022/12/06 00:08:54;;;;;;;3.67;3.37;;;18.30;66.20;;;;;;5017070;28;20963;-67
2022/12/06 00:11:24;;;;;;;3.80;3.43;;;18.30;66.30;;;;;;5020819;28;20457;-67
2022/12/06 00:13:54;;;;;;;3.47;3.17;;;18.30;66.20;;;;;;5024272;28;20480;-68
2022/12/06 00:16:23;;;;;;;3.33;2.90;;;18.30;66.20;;;;;;5021563;28;20460;-67
2022/12/06 00:18:52;;;;;;;3.50;2.97;;;18.30;66.30;;;;;;5014133;28;20587;-68
2022/12/06 00:21:23;;;;;;;3.10;2.90;;;18.30;66.20;;;;;;5016854;28;20473;-68
2022/12/06 00:23:55;;;;;;;4.13;3.73;;;18.30;66.30;;;;;;5027744;28;20452;-67
2022/12/06 00:26:24;;;;;;;4.17;3.60;;;18.30;66.20;;;;;;5015468;28;20504;-68
2022/12/06 00:28:53;;;;;;;2.87;2.57;;;18.30;66.20;;;;;;5010945;28;20884;-67
2022/12/06 00:31:23;;;;;;;3.40;3.10;;;18.30;66.20;;;;;;5013035;28;20480;-67
2022/12/06 00:33:52;;;;;;;3.40;3.20;;;18.30;66.20;;;;;;5008581;28;20465;-68
2022/12/06 00:36:22;;;;;;;3.93;3.60;;;18.30;66.30;;;;;;5022453;28;20837;-67
2022/12/06 00:38:51;;;;;;;6.20;3.70;;;18.30;66.20;;;;;;5019218;28;20494;-67
2022/12/06 00:41:23;;;;;;;3.53;3.23;;;18.30;66.20;;;;;;5011559;28;20896;-68
2022/12/06 00:43:52;;;;;;;3.33;3.03;;;18.30;66.20;;;;;;5010732;28;20959;-67
2022/12/06 00:46:22;;;;;;;3.67;3.47;;;18.30;66.20;;;;;;5020334;28;20488;-68
2022/12/06 00:48:51;;;;;;;3.67;3.37;;;18.30;66.20;;;;;;5021242;28;20531;-68
2022/12/06 00:51:20;;;;;;;5.27;3.80;;;18.30;66.20;;;;;;5009314;28;20495;-68
2022/12/06 00:53:49;;;;;;;3.23;3.00;;;18.30;66.20;;;;;;5013816;28;20547;-67
2022/12/06 00:56:18;;;;;;;3.60;3.30;;;18.30;66.20;;;;;;5013029;28;20507;-67
2022/12/06 00:58:48;;;;;;;3.37;3.00;;;18.30;66.20;;;;;;5020058;28;20467;-68
2022/12/06 01:01:19;;;;;;;3.27;2.97;;;18.30;66.20;;;;;;5013426;28;20449;-68
2022/12/06 01:03:50;;;;;;;3.33;3.07;;;18.30;66.20;;;;;;5016838;28;20465;-68
2022/12/06 01:06:19;;;;;;;3.07;2.87;;;18.20;66.20;;;;;;5019996;28;20530;-67
2022/12/06 01:08:48;;;;;;;3.70;3.30;;;18.20;66.20;;;;;;5020214;28;20992;-67
2022/12/06 01:11:16;;;;;;;4.17;3.77;;;18.20;66.20;;;;;;5021270;28;20896;-67
2022/12/06 01:13:44;;;;;;;4.10;3.20;;;18.20;66.20;;;;;;5013898;28;20445;-68
2022/12/06 01:16:16;;;;;;;3.50;3.20;;;18.20;66.10;;;;;;5020579;28;20455;-68
2022/12/06 01:18:45;;;;;;;3.77;3.47;;;18.20;66.20;;;;;;5022225;28;20890;-68
2022/12/06 01:21:16;;;;;;;5.77;3.80;;;18.20;66.20;;;;;;5013749;28;20453;-67
2022/12/06 01:23:45;;;;;;;3.30;3.10;;;18.20;66.20;;;;;;5013324;28;20462;-68
2022/12/06 01:26:16;;;;;;;3.07;2.87;;;18.20;66.20;;;;;;5015813;28;20968;-67
2022/12/06 01:28:44;;;;;;;4.40;4.00;;;18.20;66.20;;;;;;5016483;28;20911;-67
2022/12/06 01:31:14;;;;;;;4.47;3.90;;;18.20;66.30;;;;;;5023357;28;21028;-67
2022/12/06 01:33:43;;;;;;;4.20;3.60;;;18.20;66.20;;;;;;5017515;28;20880;-67
2022/12/06 01:36:17;;;;;;;3.60;3.30;;;18.20;66.30;;;;;;5018475;28;20559;-67
2022/12/06 01:38:49;;;;;;;3.57;3.27;;;18.20;66.30;;;;;;5029816;28;20583;-67
2022/12/06 01:41:18;;;;;;;4.10;3.70;;;18.20;66.20;;;;;;5014889;28;20485;-67
2022/12/06 01:43:47;;;;;;;5.83;3.60;;;18.20;66.20;;;;;;5024330;28;20459;-67
2022/12/06 01:46:29;;;;;;;3.90;3.60;;;18.20;66.20;;;;;;5023625;28;20496;-67
2022/12/06 01:49:06;;;;;;;4.53;4.13;;;18.20;66.20;;;;;;5014415;28;20491;-67
2022/12/06 01:51:36;;;;;;;7.30;3.43;;;18.20;66.30;;;;;;5030108;28;20582;-68
2022/12/06 01:54:08;;;;;;;4.13;3.73;;;18.20;66.20;;;;;;5018483;28;20563;-67
2022/12/06 01:56:36;;;;;;;4.07;3.77;;;18.20;66.20;;;;;;5019328;28;20457;-67
2022/12/06 01:59:05;;;;;;;4.57;3.90;;;18.20;66.30;;;;;;5014949;28;20457;-67
2022/12/06 02:01:37;;;;;;;3.80;3.50;;;18.20;66.20;;;;;;5020945;28;20462;-67
2022/12/06 02:04:06;;;;;;;3.70;3.40;;;18.20;66.20;;;;;;5021896;28;21006;-67
2022/12/06 02:06:34;;;;;;;6.70;4.17;;;18.20;66.20;;;;;;5021802;28;21025;-67
2022/12/06 02:09:05;;;;;;;4.00;3.43;;;18.20;66.20;;;;;;5013443;28;20483;-67
2022/12/06 02:11:33;;;;;;;3.80;3.50;;;18.20;66.20;;;;;;5015620;28;20522;-67
2022/12/06 02:14:04;;;;;;;4.07;3.77;;;18.20;66.20;;;;;;5023488;28;22159;-67
2022/12/06 02:16:45;;;;;;;3.53;3.23;;;18.20;66.20;;;;;;5014355;28;20901;-67
2022/12/06 02:19:37;;;;;;;3.83;3.53;;;18.20;66.20;;;;;;5012987;28;20453;-67
2022/12/06 02:22:12;;;;;;;4.23;3.93;;;18.20;66.20;;;;;;5013611;28;20499;-67
2022/12/06 02:24:58;;;;;;;4.20;3.80;;;18.20;66.10;;;;;;5020549;28;20648;-67
2022/12/06 02:27:49;;;;;;;4.00;3.60;;;18.20;66.10;;;;;;5016764;28;20576;-67
2022/12/06 02:30:44;;;;;;;3.57;3.27;;;18.20;66.20;;;;;;5013822;28;20504;-68
2022/12/06 02:33:20;;;;;;;4.63;4.23;;;18.20;66.10;;;;;;5012590;28;20798;-67
2022/12/06 02:35:53;;;;;;;4.50;4.10;;;18.20;66.10;;;;;;5021392;28;20821;-67
2022/12/06 02:38:28;;;;;;;3.80;3.50;;;18.20;66.10;;;;;;5011481;28;20540;-67
2022/12/06 02:40:59;;;;;;;4.20;3.80;;;18.20;66.10;;;;;;5012776;28;20575;-67
2022/12/06 02:43:34;;;;;;;4.57;4.17;;;18.20;66.20;;;;;;5027193;28;20463;-68
2022/12/06 02:46:05;;;;;;;5.07;4.60;;;18.20;66.10;;;;;;5010758;28;20461;-67
2022/12/06 02:48:34;;;;;;;3.60;3.30;;;18.20;66.10;;;;;;5011824;28;20524;-67
2022/12/06 02:51:07;;;;;;;3.83;3.53;;;18.20;66.10;;;;;;5019236;28;20459;-67
2022/12/06 02:53:38;;;;;;;3.83;3.53;;;18.20;66.00;;;;;;5017964;28;20461;-67
2022/12/06 02:56:08;;;;;;;4.13;3.73;;;18.20;66.10;;;;;;5012424;28;20453;-67
2022/12/06 02:58:37;;;;;;;3.90;3.60;;;18.20;66.00;;;;;;5012840;28;20488;-68
2022/12/06 03:01:10;;;;;;;4.07;3.77;;;18.20;66.10;;;;;;5012675;28;20465;-67
2022/12/06 03:04:00;;;;;;;4.07;3.67;;;18.20;66.10;;;;;;5014636;28;20956;-67
2022/12/06 03:06:59;;;;;;;3.83;3.53;;;18.20;66.10;;;;;;5010810;28;20559;-67
2022/12/06 03:09:52;;;;;;;5.00;3.77;;;18.10;66.20;;;;;;5013203;28;20516;-67
2022/12/06 03:12:30;;;;;;;4.07;3.67;;;18.20;66.20;;;;;;5004922;28;20571;-68
2022/12/06 03:15:08;;;;;;;5.20;3.87;;;18.10;66.10;;;;;;5018732;28;20991;-67
2022/12/06 03:17:42;;;;;;;4.23;3.90;;;18.20;66.20;;;;;;5027888;28;20539;-67
2022/12/06 03:20:15;;;;;;;4.17;3.80;;;18.10;66.20;;;;;;5013111;28;20551;-67
2022/12/06 03:22:48;;;;;;;4.23;3.93;;;18.10;66.20;;;;;;5021994;28;20554;-67
2022/12/06 03:25:17;;;;;;;4.67;4.30;;;18.20;66.20;;;;;;5016517;28;20594;-67
2022/12/06 03:27:48;;;;;;;3.70;3.40;;;18.10;66.30;;;;;;5009951;28;20998;-67
2022/12/06 03:30:16;;;;;;;3.53;3.23;;;18.10;66.30;;;;;;5015689;28;20457;-67
2022/12/06 03:32:48;;;;;;;4.23;3.73;;;18.10;66.20;;;;;;5022149;28;21959;-67
2022/12/06 03:35:20;;;;;;;4.03;3.40;;;18.10;66.30;;;;;;5023714;28;20861;-67
2022/12/06 03:37:53;;;;;;;4.07;3.67;;;18.10;66.30;;;;;;5012629;28;20456;-68
2022/12/06 03:40:26;;;;;;;3.73;3.33;;;18.10;66.30;;;;;;5017049;28;20558;-68
2022/12/06 03:42:54;;;;;;;4.37;3.97;;;18.10;66.30;;;;;;5019136;28;20550;-67
2022/12/06 03:45:26;;;;;;;3.90;3.60;;;18.10;66.30;;;;;;5010126;28;20459;-67
2022/12/06 03:48:03;;;;;;;4.27;3.87;;;18.10;66.30;;;;;;5018058;28;20623;-68
2022/12/06 03:50:33;;;;;;;3.87;3.57;;;18.10;66.30;;;;;;5012009;28;20555;-68
2022/12/06 03:53:02;;;;;;;5.27;3.80;;;18.10;66.30;;;;;;5015864;28;20543;-67
2022/12/06 03:55:30;;;;;;;4.00;3.70;;;18.10;66.30;;;;;;5010904;28;20940;-68
2022/12/06 03:57:58;;;;;;;4.73;4.30;;;18.10;66.30;;;;;;5010462;28;20433;-68
2022/12/06 04:00:26;;;;;;;4.20;3.80;;;18.10;66.30;;;;;;5018630;28;20548;-68
2022/12/06 04:02:56;;;;;;;4.50;4.10;;;18.10;66.30;;;;;;5023241;28;20455;-68
2022/12/06 04:05:24;;;;;;;3.90;3.57;;;18.10;66.30;;;;;;5011842;28;20572;-67
2022/12/06 04:07:52;;;;;;;3.80;3.50;;;18.10;66.30;;;;;;5015802;28;21019;-67
2022/12/06 04:10:21;;;;;;;4.00;3.70;;;18.10;66.20;;;;;;5016113;28;20598;-68
2022/12/06 04:13:02;;;;;;;4.60;4.20;;;18.10;66.30;;;;;;5019007;28;20547;-68
2022/12/06 04:15:33;;;;;;;4.17;3.50;;;18.10;66.20;;;;;;5027442;28;20466;-67
2022/12/06 04:18:15;;;;;;;5.23;4.73;;;18.10;66.30;;;;;;5018174;28;20465;-67
2022/12/06 04:23:37;;;;;;;3.93;3.53;;;18.10;66.30;;;;;;5022377;28;20508;-67
2022/12/06 04:26:08;;;;;;;4.10;3.80;;;18.10;66.30;;;;;;5014248;28;20911;-67
2022/12/06 04:39:40;;;;;;;4.37;3.97;;;18.10;66.20;;;;;;5015202;28;20488;-67
2022/12/06 04:44:55;;;;;;;3.63;3.33;;;18.10;66.20;;;;;;5015856;28;20453;-67
2022/12/06 04:47:24;;;;;;;4.20;3.90;;;18.10;66.20;;;;;;5016798;28;20523;-67
2022/12/06 04:49:53;;;;;;;4.53;4.13;;;18.00;66.20;;;;;;5014132;28;20482;-67
2022/12/06 04:52:21;;;;;;;5.07;4.00;;;18.10;66.20;;;;;;5013651;28;20463;-67
2022/12/06 04:54:50;;;;;;;4.33;3.97;;;18.00;66.20;;;;;;5021541;28;20936;-68
2022/12/06 04:57:18;;;;;;;5.50;4.10;;;18.00;66.20;;;;;;5024920;28;20546;-67
2022/12/06 04:59:48;;;;;;;4.23;3.83;;;18.00;66.20;;;;;;5018900;28;20453;-67
2022/12/06 05:02:16;;;;;;;4.23;3.83;;;18.00;66.20;;;;;;5009692;28;20481;-67
2022/12/06 05:04:44;;;;;;;5.30;4.80;;;18.00;66.20;;;;;;5017466;28;20584;-67
2022/12/06 05:07:14;;;;;;;4.63;4.17;;;18.00;66.20;;;;;;5018441;28;20457;-68
2022/12/06 05:09:42;;;;;;;4.30;3.90;;;18.00;66.20;;;;;;5022057;28;20475;-67
2022/12/06 05:12:10;;;;;;;3.67;3.33;;;18.00;66.20;;;;;;5020801;28;20462;-68
2022/12/06 05:14:38;;;;;;;5.40;3.80;;;18.00;66.20;;;;;;5017857;28;20591;-68
2022/12/06 05:17:07;;;;;;;4.40;4.00;;;18.00;66.20;;;;;;5019131;28;20484;-68
2022/12/06 05:19:35;;;;;;;4.33;3.93;;;18.00;66.20;;;;;;5015313;28;20504;-68
2022/12/06 05:22:03;;;;;;;6.53;4.30;;;18.00;66.20;;;;;;5012791;28;20468;-68
2022/12/06 05:24:33;;;;;;;4.40;4.00;;;18.00;66.20;;;;;;5011885;28;20812;-67
2022/12/06 05:27:01;;;;;;;3.50;3.20;;;18.00;66.20;;;;;;5017454;28;20913;-67
2022/12/06 05:29:30;;;;;;;4.63;3.97;;;18.00;66.20;;;;;;5012378;28;20567;-67
2022/12/06 05:31:58;;;;;;;4.27;3.80;;;18.00;66.20;;;;;;5016150;28;20507;-67
2022/12/06 05:34:26;;;;;;;4.40;4.00;;;18.00;66.10;;;;;;5019076;28;20519;-67
2022/12/06 05:36:54;;;;;;;4.90;4.50;;;18.00;66.20;;;;;;5016981;28;20821;-66
2022/12/06 05:39:23;;;;;;;5.50;4.00;;;18.00;66.20;;;;;;5020922;28;20488;-66
2022/12/06 05:41:52;;;;;;;4.00;3.60;;;18.00;66.30;;;;;;5021504;28;20465;-66
2022/12/06 05:44:20;;;;;;;6.13;4.77;;;18.00;66.20;;;;;;5022665;28;20542;-66
2022/12/06 05:46:49;;;;;;;4.67;4.10;;;18.00;66.00;;;;;;5015424;28;20463;-65
2022/12/06 05:49:17;;;;;;;5.77;5.17;;;18.00;66.50;;;;;;5017706;28;20904;-67
2022/12/06 05:51:45;;;;;;;4.47;4.07;;;18.00;66.20;;;;;;5015203;28;20475;-69
2022/12/06 05:54:13;;;;;;;4.33;3.93;;;18.00;66.20;;;;;;5015028;28;20503;-66
2022/12/06 05:56:41;;;;;;;3.97;3.60;;;18.00;66.50;;;;;;5024976;28;20489;-66
2022/12/06 05:59:11;;;;;;;4.63;3.60;;;18.00;66.60;;;;;;5017002;28;20537;-66
2022/12/06 06:01:39;;;;;;;4.20;3.80;;;18.00;66.70;;;;;;5015603;28;20964;-66
2022/12/06 06:04:08;;;;;;;4.83;4.37;;;18.00;66.70;;;;;;5013316;28;20459;-67
2022/12/06 06:06:36;;;;;;;5.90;4.40;;;18.00;66.70;;;;;;5018073;28;20536;-66
2022/12/06 06:09:04;;;;;;;4.43;4.03;;;18.00;66.70;;;;;;5021507;28;20510;-66
2022/12/06 06:11:32;;;;;;;4.30;3.90;;;18.00;66.70;;;;;;5012722;28;20469;-66
2022/12/06 06:14:00;;;;;;;4.67;4.20;;;18.00;66.70;;;;;;5014154;28;20589;-67
2022/12/06 06:16:31;;;;;;;4.53;4.13;;;18.00;66.80;;;;;;5017547;28;20511;-66
2022/12/06 06:19:00;;;;;;;5.10;4.47;;;18.00;66.70;;;;;;5015466;28;20448;-66
2022/12/06 06:21:28;;;;;;;5.20;4.10;;;18.00;66.70;;;;;;5015397;28;20471;-66
2022/12/06 06:23:57;;;;;;;4.67;4.23;;;18.00;66.70;;;;;;5014076;28;20581;-67
2022/12/06 06:26:25;;;;;;;6.47;5.43;;;18.00;66.70;;;;;;5011661;28;20952;-66
2022/12/06 06:28:54;;;;;;;4.63;4.00;;;18.00;66.60;;;;;;5018839;28;20885;-66
2022/12/06 06:31:22;;;;;;;5.83;4.63;;;18.00;66.30;;;;;;5014594;28;20921;-66
2022/12/06 06:33:52;;;;;;;8.00;4.83;;;18.00;66.70;;;;;;5013893;28;21527;-66
2022/12/06 06:36:20;;;;;;;4.90;4.17;;;18.00;66.70;;;;;;5015790;28;20551;-66
2022/12/06 06:38:48;;;;;;;4.90;4.00;;;18.00;66.70;;;;;;5018311;28;20460;-66
2022/12/06 06:41:16;;;;;;;5.70;3.90;;;18.00;66.70;;;;;;5018198;28;21078;-66
2022/12/06 06:43:44;;;;;;;5.23;4.43;;;18.00;66.60;;;;;;5014691;28;20563;-66
2022/12/06 06:46:12;;;;;;;4.43;4.00;;;17.90;66.50;;;;;;5015389;28;20455;-66
2022/12/06 06:48:41;;;;;;;5.60;4.10;;;17.90;66.50;;;;;;5023930;28;20482;-66
2022/12/06 06:51:12;;;;;;;5.73;5.07;;;17.90;66.50;;;;;;5008844;28;20465;-66
2022/12/06 06:53:41;;;;;;;6.47;4.70;;;17.90;66.40;;;;;;5009921;28;20532;-67
2022/12/06 06:56:09;;;;;;;6.40;4.30;;;17.90;66.40;;;;;;5012465;28;20460;-67
2022/12/06 06:58:37;;;;;;;6.80;4.50;;;17.90;66.50;;;;;;5012265;28;20474;-67
2022/12/06 07:01:07;;;;;;;5.20;4.67;;;17.90;66.50;;;;;;5011077;28;20901;-67
2022/12/06 07:03:36;;;;;;;7.20;6.43;;;17.90;66.60;;;;;;5014338;28;20459;-66
2022/12/06 07:06:07;;;;;;;7.23;5.60;;;17.90;68.30;;;;;;5017429;28;20457;-67
2022/12/06 07:08:38;;;;;;;9.07;5.83;;;17.90;69.10;;;;;;5014325;28;20456;-67
2022/12/06 07:11:07;;;;;;;6.70;5.40;;;17.90;69.60;;;;;;5014128;28;20575;-67
2022/12/06 07:13:37;;;;;;;8.13;5.80;;;17.90;69.60;;;;;;5013534;28;20464;-66
2022/12/06 07:16:07;;;;;;;8.07;5.53;;;17.90;70.00;;;;;;5013450;28;21023;-66
2022/12/06 07:18:35;;;;;;;5.70;5.20;;;17.90;69.80;;;;;;5015013;28;20455;-66
2022/12/06 07:21:06;;;;;;;8.67;5.83;;;18.00;69.60;;;;;;5013011;28;20539;-66
2022/12/06 07:23:37;;;;;;;10.10;5.40;;;17.90;69.00;;;;;;5021293;28;20441;-66
2022/12/06 07:26:08;;;;;;;7.93;5.67;;;17.90;68.80;;;;;;5031196;28;20798;-66
2022/12/06 07:28:37;;;;;;;8.90;5.50;;;17.90;68.60;;;;;;5016938;28;20461;-66
2022/12/06 07:31:09;;;;;;;9.57;4.90;;;17.90;68.40;;;;;;5011012;28;21079;-66
2022/12/06 07:33:38;;;;;;;10.63;5.60;;;17.90;68.20;;;;;;5008323;28;21119;-66
2022/12/06 07:36:07;;;;;;;6.77;6.10;;;17.90;68.30;;;;;;5019612;28;20552;-66
2022/12/06 07:38:42;;;;;;;7.03;5.30;;;17.90;68.20;;;;;;5012253;28;20506;-66
2022/12/06 07:46:45;;;;;;;14.23;8.07;;;17.90;68.00;;;;;;5013738;28;20448;-66
2022/12/06 07:49:15;;;;;;;16.10;8.10;;;17.90;74.20;;;;;;5015632;28;20986;-66
2022/12/06 07:51:44;;;;;;;12.30;7.27;;;18.00;76.60;;;;;;5008683;28;20575;-66
2022/12/06 07:54:14;;;;;;;9.27;6.70;;;18.10;76.40;;;;;;5025599;28;20483;-66
2022/12/06 07:56:42;;;;;;;7.73;6.73;;;18.20;76.20;;;;;;5011952;28;20438;-66
2022/12/06 07:59:11;;;;;;;12.57;6.80;;;18.30;75.90;;;;;;5029862;28;20460;-66
2022/12/06 08:01:40;;;;;;;10.67;7.50;;;18.30;75.80;;;;;;5028490;28;21000;-66
2022/12/06 08:04:08;;;;;;;11.57;7.67;;;18.40;75.50;;;;;;5018537;28;20479;-66
2022/12/06 08:06:37;;;;;;;12.07;7.00;;;18.40;75.20;;;;;;5021552;28;20449;-66
2022/12/06 08:09:06;;;;;;;13.00;6.80;;;18.50;75.10;;;;;;5012698;28;20943;-66
2022/12/06 08:11:36;;;;;;;11.60;6.70;;;18.50;74.70;;;;;;5015459;28;20585;-66
2022/12/06 08:14:04;;;;;;;11.20;6.23;;;18.60;74.40;;;;;;5024722;28;20876;-66
2022/12/06 08:16:32;;;;;;;12.47;7.30;;;18.60;74.20;;;;;;5026964;28;20813;-66
2022/12/06 08:19:01;;;;;;;9.23;7.43;;;18.60;74.00;;;;;;5029772;28;20522;-66
2022/12/06 08:21:29;;;;;;;6.60;5.90;;;18.70;73.40;;;;;;5023466;28;20456;-66
2022/12/06 08:23:57;;;;;;;9.50;6.57;;;18.70;72.60;;;;;;5016983;28;20477;-67
2022/12/06 08:26:26;;;;;;;9.87;6.30;;;18.70;72.00;;;;;;5025653;28;20543;-66
2022/12/06 08:28:55;;;;;;;11.23;6.80;;;18.70;71.30;;;;;;5018428;28;20461;-66
2022/12/06 08:31:24;;;;;;;8.80;5.40;;;18.80;70.50;;;;;;5023782;28;20587;-66
2022/12/06 08:33:53;;;;;;;11.13;5.87;;;18.80;69.90;;;;;;5030580;28;20452;-66
2022/12/06 08:36:22;;;;;;;6.90;4.93;;;18.80;69.30;;;;;;5029547;28;20944;-66
2022/12/06 08:38:51;;;;;;;9.50;5.73;;;18.80;69.10;;;;;;5011769;28;20485;-66
2022/12/06 08:44:22;;;;;;;5.00;4.50;;;18.90;68.20;;;;;;4982081;28;20471;-66
2022/12/06 08:46:51;;;;;;;7.70;5.00;;;18.90;67.80;;;;;;4986018;28;20888;-66
2022/12/06 08:49:20;;;;;;;6.37;5.00;;;18.90;67.50;;;;;;4999757;28;20477;-66
2022/12/06 08:51:48;;;;;;;7.10;5.17;;;18.90;67.60;;;;;;5025592;28;20918;-66
2022/12/06 08:54:18;;;;;;;6.57;5.70;;;18.90;67.30;;;;;;5021312;28;20505;-66
2022/12/06 08:56:47;;;;;;;6.77;5.97;;;18.90;67.20;;;;;;5019786;28;21012;-65
2022/12/06 08:59:15;;;;;;;5.70;5.20;;;18.90;67.10;;;;;;5020613;28;20452;-66
2022/12/06 09:01:45;;;;;;;6.20;5.27;;;19.00;66.90;;;;;;5015310;28;20517;-65
2022/12/06 09:04:14;;;;;;;6.13;5.33;;;19.00;66.60;;;;;;5026357;28;20963;-71
2022/12/06 09:06:47;;;;;;;7.13;5.97;;;19.00;66.50;;;;;;5020357;28;20461;-66
2022/12/06 09:09:17;;;;;;;6.23;5.63;;;19.00;66.60;;;;;;5015256;28;20495;-66
2022/12/06 09:11:46;;;;;;;6.47;4.83;;;19.00;66.60;;;;;;5022053;28;20476;-66
2022/12/06 09:14:16;;;;;;;6.13;5.53;;;19.00;66.70;;;;;;5009933;28;20461;-66
2022/12/06 09:16:51;;;;;;;4.67;4.10;;;19.00;66.80;;;;;;5015781;28;20457;-66
2022/12/06 09:19:20;;;;;;;5.30;4.80;;;19.00;66.80;;;;;;5021131;28;20523;-66
2022/12/06 09:21:48;;;;;;;5.33;4.93;;;19.00;66.80;;;;;;5015304;28;20504;-66
2022/12/06 09:24:18;;;;;;;5.40;4.90;;;19.00;66.80;;;;;;5016470;28;20449;-66
2022/12/06 09:26:47;;;;;;;6.43;4.83;;;19.00;66.80;;;;;;5011984;28;20493;-66
2022/12/06 09:29:16;;;;;;;6.57;5.97;;;19.00;66.60;;;;;;5014848;28;20592;-66
2022/12/06 09:31:44;;;;;;;6.00;5.40;;;19.00;66.60;;;;;;5026051;28;20482;-66
2022/12/06 09:34:14;;;;;;;6.93;5.40;;;19.00;66.50;;;;;;5024185;28;20556;-66
2022/12/06 09:36:46;;;;;;;6.40;5.80;;;19.00;66.40;;;;;;5016054;28;20523;-70
2022/12/06 09:39:18;;;;;;;5.13;4.70;;;19.10;66.40;;;;;;5023822;28;20540;-66
2022/12/06 09:42:31;;;;;;;6.53;4.80;;;19.00;66.30;;;;;;5014898;28;20504;-65
2022/12/06 09:45:23;;;;;;;6.00;4.80;;;19.00;66.40;;;;;;5010816;28;20469;-66
2022/12/06 09:48:11;;;;;;;5.27;4.23;;;19.00;66.30;;;;;;5026944;28;20921;-65
2022/12/06 09:50:52;;;;;;;6.43;5.80;;;19.00;66.30;;;;;;5020989;28;20440;-66
2022/12/06 09:53:27;;;;;;;5.53;5.00;;;19.10;66.30;;;;;;5021206;28;20462;-66
2022/12/06 09:56:06;;;;;;;4.97;4.40;;;19.10;66.40;;;;;;5020943;28;20994;-66
2022/12/06 09:58:49;;;;;;;5.00;4.47;;;19.10;66.30;;;;;;5022775;28;20448;-66
2022/12/06 10:01:27;;;;;;;4.43;4.10;;;19.10;66.20;;;;;;5026958;28;20441;-66
2022/12/06 10:04:08;;;;;;;6.07;5.17;;;19.10;66.00;;;;;;5025583;28;20550;-66
2022/12/06 10:06:44;;;;;;;5.13;4.67;;;19.10;66.00;;;;;;5026212;28;20821;-65
2022/12/06 10:09:29;;;;;;;4.77;4.30;;;19.10;65.90;;;;;;5018647;28;20817;-65
2022/12/06 10:12:10;;;;;;;4.50;4.10;;;19.10;65.80;;;;;;5021192;28;20526;-65
2022/12/06 10:15:00;;;;;;;4.70;4.30;;;19.10;65.80;;;;;;5019122;28;20489;-65
2022/12/06 10:17:35;;;;;;;5.90;5.10;;;19.10;65.90;;;;;;5015543;28;21373;-66
2022/12/06 10:20:09;;;;;;;4.53;4.13;;;19.10;65.90;;;;;;5031283;28;20502;-66
2022/12/06 10:22:55;;;;;;;4.53;4.13;;;19.10;65.70;;;;;;5024232;28;20453;-66
2022/12/06 10:25:30;;;;;;;7.77;4.07;;;19.20;65.70;;;;;;5018598;28;20511;-66
2022/12/06 10:28:10;;;;;;;4.40;3.87;;;19.20;65.60;;;;;;5013432;28;20485;-65
2022/12/06 10:30:48;;;;;;;4.50;4.10;;;19.20;65.60;;;;;;5019138;28;20459;-66
2022/12/06 10:33:25;;;;;;;4.20;3.80;;;19.20;65.70;;;;;;5020829;28;20476;-66
2022/12/06 10:35:56;;;;;;;4.37;3.97;;;19.20;65.60;;;;;;5031668;28;20475;-66
2022/12/06 10:38:30;;;;;;;5.13;4.63;;;19.20;65.60;;;;;;5017453;28;20544;-66
2022/12/06 10:41:07;;;;;;;4.33;3.93;;;19.20;65.50;;;;;;5022838;28;20476;-66
2022/12/06 10:43:42;;;;;;;4.37;4.07;;;19.20;65.50;;;;;;5028848;28;20500;-66
2022/12/06 10:49:15;;;;;;;5.10;4.60;;;19.20;65.50;;;;;;5032230;28;20496;-65
2022/12/06 10:51:49;;;;;;;4.40;4.00;;;19.20;65.30;;;;;;5026385;28;20488;-65
2022/12/06 10:54:27;;;;;;;4.07;3.77;;;19.20;65.90;;;;;;5022601;28;20488;-65
2022/12/06 10:56:59;;;;;;;4.57;4.17;;;19.20;66.30;;;;;;5026943;28;20483;-65
2022/12/06 10:59:34;;;;;;;4.10;3.73;;;19.30;66.60;;;;;;5014630;28;20457;-65
2022/12/06 11:02:20;;;;;;;3.80;3.50;;;19.30;66.70;;;;;;5022668;28;20802;-65
2022/12/06 11:04:50;;;;;;;4.97;4.50;;;19.30;66.80;;;;;;5027900;28;20457;-65
2022/12/06 11:07:23;;;;;;;4.77;4.40;;;19.30;66.70;;;;;;5030451;28;20980;-66
2022/12/06 11:09:56;;;;;;;4.00;3.67;;;19.30;66.60;;;;;;5029023;28;20551;-66
2022/12/06 11:12:29;;;;;;;4.57;3.93;;;19.40;66.50;;;;;;5016986;28;20464;-66
2022/12/06 11:15:04;;;;;;;4.63;4.23;;;19.40;66.40;;;;;;5015609;28;20465;-65
2022/12/06 11:17:36;;;;;;;4.70;4.30;;;19.40;66.30;;;;;;5017302;28;20783;-65
2022/12/06 11:20:15;;;;;;;4.83;3.90;;;19.40;66.10;;;;;;5010525;28;20770;-65
2022/12/06 11:22:50;;;;;;;4.57;4.17;;;19.40;66.00;;;;;;5018743;28;20459;-65
2022/12/06 11:25:26;;;;;;;4.43;4.03;;;19.40;65.90;;;;;;5022194;28;20530;-66
2022/12/06 11:28:01;;;;;;;3.90;3.60;;;19.40;65.70;;;;;;5025717;28;20559;-65
2022/12/06 11:30:32;;;;;;;4.30;4.00;;;19.40;65.60;;;;;;5019242;28;20448;-65
2022/12/06 11:33:02;;;;;;;7.97;4.23;;;19.30;65.30;;;;;;5019678;28;20477;-65
2022/12/06 11:35:31;;;;;;;5.93;4.43;;;19.40;65.30;;;;;;5020744;28;20489;-66
2022/12/06 11:38:02;;;;;;;4.43;4.00;;;19.40;65.40;;;;;;5016978;28;20449;-66
2022/12/06 11:40:35;;;;;;;4.43;4.03;;;19.30;65.30;;;;;;5013123;28;20574;-66
2022/12/06 11:43:08;;;;;;;4.57;4.17;;;19.30;65.20;;;;;;5016801;28;20882;-65
2022/12/06 11:45:39;;;;;;;5.80;4.30;;;19.30;65.20;;;;;;5012147;28;20855;-66
2022/12/06 11:48:15;;;;;;;5.20;4.47;;;19.30;65.20;;;;;;5011715;28;20902;-65
2022/12/06 11:50:44;;;;;;;4.67;3.97;;;19.30;65.30;;;;;;5011384;28;20851;-65
2022/12/06 11:53:19;;;;;;;4.10;3.60;;;19.30;65.20;;;;;;5012123;28;20833;-65
2022/12/06 11:55:52;;;;;;;4.53;4.13;;;19.30;65.20;;;;;;5013565;28;20510;-65
2022/12/06 11:58:28;;;;;;;4.87;4.27;;;19.30;65.20;;;;;;5023005;28;20472;-66
2022/12/06 12:00:59;;;;;;;4.20;3.70;;;19.30;65.20;;;;;;5014760;28;20488;-65
2022/12/06 12:03:29;;;;;;;3.70;3.50;;;19.30;65.20;;;;;;5028395;28;20941;-66
2022/12/06 12:06:19;;;;;;;4.17;3.77;;;19.30;65.20;;;;;;5030845;28;20534;-65
2022/12/06 12:08:54;;;;;;;4.30;3.90;;;19.30;65.20;;;;;;5028049;28;20905;-66
2022/12/06 12:11:26;;;;;;;3.90;3.60;;;19.30;65.20;;;;;;5014026;28;20511;-65
2022/12/06 12:13:58;;;;;;;4.30;3.90;;;19.30;65.40;;;;;;5012840;28;20490;-66
2022/12/06 12:16:30;;;;;;;5.33;4.33;;;19.30;65.40;;;;;;5007212;28;20497;-66
2022/12/06 12:19:01;;;;;;;4.60;4.20;;;19.30;65.20;;;;;;5015252;28;20540;-66
2022/12/06 12:21:36;;;;;;;5.60;4.47;;;19.30;65.30;;;;;;5009148;28;20677;-66
2022/12/06 12:24:06;;;;;;;6.73;3.97;;;19.30;65.20;;;;;;5018443;28;20452;-65
2022/12/06 12:26:39;;;;;;;4.87;4.33;;;19.30;65.10;;;;;;5011348;28;20458;-65
2022/12/06 12:29:18;;;;;;;5.10;4.47;;;19.30;65.00;;;;;;5010153;28;20456;-66
2022/12/06 12:31:53;;;;;;;4.73;4.33;;;19.30;64.90;;;;;;5011694;28;20479;-66
2022/12/06 12:34:27;;;;;;;4.97;4.47;;;19.30;64.80;;;;;;5008629;28;20475;-66
2022/12/06 12:36:59;;;;;;;4.40;3.97;;;19.30;64.80;;;;;;5009096;28;20552;-65
2022/12/06 12:39:33;;;;;;;9.67;6.40;;;19.30;64.80;;;;;;5007948;28;20552;-66
2022/12/06 12:42:03;;;;;;;5.23;4.47;;;19.30;64.80;;;;;;5009270;28;20494;-66
2022/12/06 12:44:33;;;;;;;3.80;3.50;;;19.30;64.80;;;;;;5015137;28;20456;-65
2022/12/06 12:47:17;;;;;;;4.77;4.23;;;19.30;64.70;;;;;;5009860;28;20488;-65
2022/12/06 12:50:17;;;;;;;4.10;3.80;;;19.30;64.70;;;;;;5010810;28;20962;-66
2022/12/06 12:52:46;;;;;;;5.67;5.10;;;19.30;64.70;;;;;;5025403;28;20503;-66
2022/12/06 12:55:17;;;;;;;4.20;3.90;;;19.30;64.70;;;;;;5017473;28;20544;-65
2022/12/06 12:57:48;;;;;;;4.80;4.30;;;19.30;64.60;;;;;;5016380;28;20979;-66
2022/12/06 13:00:18;;;;;;;6.07;3.80;;;19.30;64.60;;;;;;5021431;28;20551;-66
2022/12/06 13:02:51;;;;;;;4.63;4.10;;;19.30;64.60;;;;;;5026071;28;20510;-66
2022/12/06 13:05:23;;;;;;;4.27;3.97;;;19.30;64.60;;;;;;5028105;28;20835;-65
2022/12/06 13:08:07;;;;;;;4.90;3.60;;;19.30;64.60;;;;;;5023779;28;20464;-65
2022/12/06 13:10:39;;;;;;;4.53;4.10;;;19.30;64.60;;;;;;5024301;28;20550;-65
2022/12/06 13:13:15;;;;;;;3.40;3.20;;;19.30;64.60;;;;;;5029300;28;20477;-65
2022/12/06 13:15:46;;;;;;;4.27;3.87;;;19.30;64.50;;;;;;5014718;28;20487;-65
2022/12/06 13:18:20;;;;;;;3.87;3.57;;;19.30;64.50;;;;;;5013865;28;20462;-65
2022/12/06 13:20:49;;;;;;;3.87;3.50;;;19.30;64.50;;;;;;5026039;28;20479;-65
2022/12/06 13:23:20;;;;;;;3.80;3.50;;;19.30;64.50;;;;;;5024128;28;20456;-65
2022/12/06 13:25:52;;;;;;;3.40;3.20;;;19.30;64.50;;;;;;5020168;28;20557;-65
2022/12/06 13:28:27;;;;;;;3.93;3.60;;;19.30;64.50;;;;;;5016157;28;20849;-66
2022/12/06 13:31:00;;;;;;;7.03;4.87;;;19.30;64.40;;;;;;5013903;28;20553;-65
2022/12/06 13:33:33;;;;;;;4.50;4.03;;;19.30;64.50;;;;;;5023401;28;20466;-66
2022/12/06 13:36:04;;;;;;;4.30;3.90;;;19.30;64.40;;;;;;5023155;28;20461;-65
2022/12/06 13:38:35;;;;;;;4.23;3.77;;;19.30;64.40;;;;;;5015003;28;20569;-65